UKV5035 RJSS-RJTT
Flight info
| Callsign | UKV5035 |
|---|---|
| Flight time | N/A |
| Altitude | 26000 |
| Route | IXE Y88 DAIGO Y10 GODIN |
| Aircraft | A321/M-SDE3FGHIRWY/LB1 |
Departure
| Time | 2026-05-06 15:47 |
|---|---|
| Airport | Sendai Airport (RJSS) |
Arrival
| Time | N/A |
|---|---|
| Airport | Tokyo Haneda International Airport (RJTT) |
| Time | Latitude | Longitude | Altitude | Speed | Heading |
|---|---|---|---|---|---|
| 2026-05-06 15:12 | 38.13890 | 140.92927 | 15 ft | 0 kts | 172° |
| 2026-05-06 15:40 | 38.13891 | 140.92927 | 15 ft | 1 kts | 172° |
| 2026-05-06 15:40 | 38.13906 | 140.92924 | 16 ft | 0 kts | 173° |
| 2026-05-06 15:41 | 38.13927 | 140.92921 | 16 ft | 2 kts | 173° |
| 2026-05-06 15:41 | 38.13950 | 140.92916 | 16 ft | 4 kts | 165° |
| 2026-05-06 15:41 | 38.13976 | 140.92905 | 16 ft | 4 kts | 153° |
| 2026-05-06 15:41 | 38.13998 | 140.92887 | 15 ft | 3 kts | 136° |
| 2026-05-06 15:42 | 38.14004 | 140.92879 | 16 ft | 0 kts | 134° |
| 2026-05-06 15:43 | 38.14004 | 140.92883 | 16 ft | 0 kts | 111° |
| 2026-05-06 15:44 | 38.14015 | 140.92928 | 16 ft | 15 kts | 74° |
| 2026-05-06 15:44 | 38.14038 | 140.93070 | 15 ft | 17 kts | 81° |
| 2026-05-06 15:44 | 38.14048 | 140.93155 | 15 ft | 0 kts | 81° |
| 2026-05-06 15:45 | 38.14051 | 140.93184 | 15 ft | 7 kts | 84° |
| 2026-05-06 15:45 | 38.14075 | 140.93255 | 15 ft | 10 kts | 44° |
| 2026-05-06 15:45 | 38.14129 | 140.93275 | 15 ft | 6 kts | 355° |
| 2026-05-06 15:45 | 38.14147 | 140.93272 | 14 ft | 7 kts | 354° |
| 2026-05-06 15:46 | 38.14215 | 140.93242 | 13 ft | 11 kts | 314° |
| 2026-05-06 15:46 | 38.14220 | 140.93198 | 13 ft | 0 kts | 262° |
| 2026-05-06 15:46 | 38.14218 | 140.93181 | 13 ft | 7 kts | 262° |
| 2026-05-06 15:47 | 38.14189 | 140.92887 | 14 ft | 69 kts | 262° |
| 2026-05-06 15:47 | 38.14094 | 140.91985 | 15 ft | 132 kts | 262° |
| 2026-05-06 15:47 | 38.13952 | 140.90653 | 129 ft | 167 kts | 259° |
| 2026-05-06 15:47 | 38.13742 | 140.89215 | 810 ft | 165 kts | 249° |
| 2026-05-06 15:48 | 38.13115 | 140.88019 | 1507 ft | 165 kts | 220° |
| 2026-05-06 15:48 | 38.12048 | 140.87414 | 2017 ft | 180 kts | 189° |
| 2026-05-06 15:48 | 38.10754 | 140.87746 | 2260 ft | 206 kts | 151° |
| 2026-05-06 15:48 | 38.10036 | 140.88636 | 2358 ft | 226 kts | 121° |